createdAt,value
2017-10-14T00:00:08.693Z,14.80
2017-10-14T00:02:35.336Z,12.00
2017-10-14T00:05:02.745Z,15.43
2017-10-14T00:07:29.425Z,13.93
2017-10-14T00:09:56.539Z,13.10
2017-10-14T00:12:23.869Z,14.00
2017-10-14T00:14:51.203Z,13.23
2017-10-14T00:17:18.671Z,14.37
2017-10-14T00:19:47.531Z,14.87
2017-10-14T00:22:14.259Z,15.43
2017-10-14T00:24:40.949Z,15.07
2017-10-14T00:27:08.350Z,15.40
2017-10-14T00:29:35.155Z,15.87
2017-10-14T00:32:01.840Z,14.63
2017-10-14T00:34:28.609Z,15.80
2017-10-14T00:36:55.496Z,16.03
2017-10-14T00:39:22.707Z,15.10
2017-10-14T00:41:49.550Z,16.73
2017-10-14T00:44:16.238Z,18.13
2017-10-14T00:46:43.614Z,16.13
2017-10-14T00:49:11.255Z,16.20
2017-10-14T00:51:38.442Z,16.80
2017-10-14T00:54:04.998Z,16.87
2017-10-14T00:56:31.744Z,16.70
2017-10-14T00:58:58.581Z,15.13
2017-10-14T01:01:25.923Z,15.40
2017-10-14T01:03:53.453Z,17.13
2017-10-14T01:06:20.393Z,16.30
2017-10-14T01:08:47.960Z,17.10
2017-10-14T01:11:14.904Z,15.77
2017-10-14T01:13:41.753Z,17.27
2017-10-14T01:16:08.464Z,16.70
2017-10-14T01:18:35.224Z,16.67
2017-10-14T01:21:02.101Z,15.80
2017-10-14T01:23:28.916Z,16.83
2017-10-14T01:25:55.793Z,19.10
2017-10-14T01:28:22.695Z,17.87
2017-10-14T01:30:49.422Z,18.80
2017-10-14T01:33:16.490Z,17.40
2017-10-14T01:35:43.321Z,18.20
2017-10-14T01:38:10.286Z,17.07
2017-10-14T01:40:37.092Z,19.07
2017-10-14T01:43:03.912Z,17.40
2017-10-14T01:45:30.604Z,18.90
2017-10-14T01:47:57.907Z,18.13
2017-10-14T01:50:25.315Z,19.73
2017-10-14T01:52:52.116Z,18.50
2017-10-14T01:55:19.191Z,18.87
2017-10-14T01:57:46.182Z,18.47
2017-10-14T02:00:13.133Z,19.10
2017-10-14T02:02:39.858Z,19.93
2017-10-14T02:05:06.570Z,19.37
2017-10-14T02:07:34.116Z,20.90
2017-10-14T02:10:00.761Z,19.80
2017-10-14T02:12:27.586Z,19.60
2017-10-14T02:14:54.979Z,19.90
2017-10-14T02:17:22.092Z,19.73
2017-10-14T02:19:48.831Z,19.80
2017-10-14T02:22:17.130Z,20.00
2017-10-14T02:24:44.415Z,20.30
2017-10-14T02:27:11.107Z,20.80
2017-10-14T02:29:38.364Z,18.47
2017-10-14T02:32:05.314Z,20.77
2017-10-14T02:34:32.107Z,19.77
2017-10-14T02:36:58.845Z,21.97
2017-10-14T02:39:25.665Z,22.00
2017-10-14T02:41:52.337Z,22.20
2017-10-14T02:44:18.933Z,22.07
2017-10-14T02:46:46.131Z,23.30
2017-10-14T02:49:13.937Z,21.53
2017-10-14T02:51:40.681Z,23.20
2017-10-14T02:54:07.502Z,21.37
2017-10-14T02:56:35.077Z,23.00
2017-10-14T02:59:01.932Z,20.73
2017-10-14T03:01:29.064Z,23.20
2017-10-14T03:03:56.207Z,23.40
2017-10-14T03:06:23.354Z,23.33
2017-10-14T03:08:50.396Z,24.70
2017-10-14T03:11:17.239Z,23.40
2017-10-14T03:13:44.080Z,25.23
2017-10-14T03:16:10.776Z,22.07
2017-10-14T03:18:38.279Z,25.87
2017-10-14T03:21:05.992Z,24.80
2017-10-14T03:23:33.011Z,23.70
2017-10-14T03:25:59.954Z,25.07
2017-10-14T03:28:26.924Z,26.83
2017-10-14T03:30:54.049Z,26.10
2017-10-14T03:33:20.797Z,26.00
2017-10-14T03:35:47.710Z,29.13
2017-10-14T03:38:14.554Z,27.67
2017-10-14T03:40:41.482Z,26.87
2017-10-14T03:43:08.344Z,28.10
2017-10-14T03:45:41.107Z,28.33
2017-10-14T03:48:08.017Z,27.80
2017-10-14T03:50:35.020Z,28.33
2017-10-14T03:53:01.842Z,26.77
2017-10-14T03:55:28.912Z,29.00
2017-10-14T03:57:55.689Z,26.60
2017-10-14T04:00:23.213Z,27.13
2017-10-14T04:02:50.081Z,30.27
2017-10-14T04:05:17.796Z,29.53
2017-10-14T04:07:44.531Z,32.00
2017-10-14T04:10:11.300Z,30.23
2017-10-14T04:12:38.152Z,27.83
2017-10-14T04:15:04.995Z,29.80
2017-10-14T04:17:31.736Z,31.13
2017-10-14T04:19:58.502Z,28.63
2017-10-14T04:22:25.318Z,29.73
2017-10-14T04:24:52.907Z,27.53
2017-10-14T04:27:19.633Z,31.67
2017-10-14T04:29:46.454Z,29.20
2017-10-14T04:32:13.119Z,33.13
2017-10-14T04:34:39.902Z,28.90
2017-10-14T04:37:06.529Z,27.83
2017-10-14T04:39:36.580Z,31.63
2017-10-14T04:42:03.559Z,28.03
2017-10-14T04:44:30.287Z,27.83
2017-10-14T04:46:56.988Z,31.37
2017-10-14T04:49:23.727Z,29.60
2017-10-14T04:51:50.982Z,29.20
2017-10-14T04:54:18.061Z,29.20
2017-10-14T04:56:44.939Z,27.57
2017-10-14T04:59:11.858Z,29.67
2017-10-14T05:01:39.266Z,30.53
2017-10-14T05:04:06.118Z,29.90
2017-10-14T05:06:32.857Z,28.83
2017-10-14T05:08:59.647Z,28.00
2017-10-14T05:11:26.479Z,32.50
2017-10-14T05:13:53.567Z,30.13
2017-10-14T05:16:20.352Z,30.80
2017-10-14T05:18:46.952Z,28.47
2017-10-14T05:21:13.810Z,30.13
2017-10-14T05:23:40.694Z,29.70
2017-10-14T05:26:07.555Z,30.67
2017-10-14T05:28:34.271Z,29.03
2017-10-14T05:31:00.949Z,27.37
2017-10-14T05:33:27.543Z,27.10
2017-10-14T05:35:54.287Z,28.50
2017-10-14T05:38:20.847Z,22.90
2017-10-14T05:40:47.497Z,29.00
2017-10-14T05:43:14.134Z,25.00
2017-10-14T05:45:40.859Z,26.03
2017-10-14T05:48:07.512Z,24.70
2017-10-14T05:50:34.274Z,24.60
2017-10-14T05:53:00.938Z,27.33
2017-10-14T05:55:27.765Z,24.77
2017-10-14T05:57:54.326Z,26.10
2017-10-14T06:00:21.131Z,25.70
2017-10-14T06:02:47.870Z,26.27
2017-10-14T06:05:14.757Z,26.13
2017-10-14T06:07:41.539Z,26.33
2017-10-14T06:10:08.339Z,25.13
2017-10-14T06:12:35.361Z,26.20
2017-10-14T06:15:02.017Z,24.27
2017-10-14T06:17:28.795Z,26.00
2017-10-14T06:19:55.544Z,26.50
2017-10-14T06:22:22.262Z,26.10
2017-10-14T06:24:49.087Z,25.33
2017-10-14T06:27:16.181Z,24.90
2017-10-14T06:29:42.874Z,22.70
2017-10-14T06:32:09.446Z,23.50
2017-10-14T06:34:36.250Z,24.90
2017-10-14T06:37:03.921Z,24.43
2017-10-14T06:39:32.141Z,23.40
2017-10-14T06:41:59.273Z,25.30
2017-10-14T06:44:25.916Z,23.73
2017-10-14T06:46:52.701Z,25.10
2017-10-14T06:49:19.553Z,20.40
2017-10-14T06:51:46.445Z,26.00
2017-10-14T06:54:13.156Z,25.30
2017-10-14T06:56:40.707Z,23.73
2017-10-14T06:59:07.487Z,22.97
2017-10-14T07:01:34.656Z,25.17
2017-10-14T07:04:01.517Z,24.80
2017-10-14T07:06:28.454Z,24.70
2017-10-14T07:08:55.735Z,22.87
2017-10-14T07:11:22.424Z,24.80
2017-10-14T07:13:49.324Z,23.53
2017-10-14T07:16:16.090Z,23.33
2017-10-14T07:18:42.903Z,21.93
2017-10-14T07:21:09.562Z,24.60
2017-10-14T07:23:36.458Z,24.30
2017-10-14T07:26:03.651Z,24.37
2017-10-14T07:28:31.299Z,21.47
2017-10-14T07:30:58.103Z,24.10
2017-10-14T07:33:24.748Z,24.23
2017-10-14T07:35:51.513Z,22.93
2017-10-14T07:38:18.175Z,25.00
2017-10-14T07:40:44.919Z,24.43
2017-10-14T07:43:11.550Z,22.47
2017-10-14T07:45:38.310Z,26.33
2017-10-14T07:48:05.262Z,25.73
2017-10-14T07:50:31.937Z,24.73
2017-10-14T07:52:58.808Z,24.87
2017-10-14T07:55:26.693Z,22.60
2017-10-14T07:57:54.102Z,23.13
2017-10-14T08:00:20.994Z,25.13
2017-10-14T08:02:48.609Z,23.60
2017-10-14T08:05:16.112Z,25.10
2017-10-14T08:07:43.125Z,24.13
2017-10-14T08:10:10.387Z,24.20
2017-10-14T08:12:40.091Z,24.20
2017-10-14T08:15:07.999Z,24.27
2017-10-14T08:17:34.744Z,22.07
2017-10-14T08:20:02.620Z,23.23
2017-10-14T08:22:29.339Z,20.60
2017-10-14T08:24:55.925Z,24.03
2017-10-14T08:27:22.705Z,25.50
2017-10-14T08:29:49.519Z,22.70
2017-10-14T08:32:16.291Z,24.77
2017-10-14T08:34:43.052Z,23.07
2017-10-14T08:37:09.790Z,22.13
2017-10-14T08:39:37.659Z,23.47
2017-10-14T08:42:04.547Z,25.20
2017-10-14T08:44:31.256Z,23.00
2017-10-14T08:46:58.071Z,25.20
2017-10-14T08:49:26.262Z,24.50
2017-10-14T08:51:58.470Z,23.07
2017-10-14T08:54:26.988Z,23.87
2017-10-14T08:56:55.391Z,23.30
2017-10-14T08:59:27.288Z,21.10
2017-10-14T09:01:56.579Z,22.97
2017-10-14T09:04:23.618Z,23.27
2017-10-14T09:06:54.014Z,20.43
2017-10-14T09:09:23.311Z,19.43
2017-10-14T09:11:51.174Z,19.73
2017-10-14T09:14:19.137Z,20.33
2017-10-14T09:16:47.179Z,20.17
2017-10-14T09:19:14.069Z,19.77
2017-10-14T09:21:41.069Z,20.10
2017-10-14T09:24:07.852Z,18.90
2017-10-14T09:26:34.872Z,18.97
2017-10-14T09:29:02.344Z,16.80
2017-10-14T09:31:29.794Z,18.07
2017-10-14T09:33:57.705Z,18.20
2017-10-14T09:36:25.953Z,15.53
2017-10-14T09:38:53.640Z,16.60
2017-10-14T09:41:20.344Z,17.73
2017-10-14T09:43:47.158Z,16.30
2017-10-14T09:46:14.005Z,15.47
2017-10-14T09:48:40.947Z,14.83
2017-10-14T09:51:07.788Z,14.70
2017-10-14T09:53:38.417Z,14.27
2017-10-14T09:56:09.309Z,12.20
2017-10-14T09:58:39.598Z,16.27
2017-10-14T10:01:09.121Z,14.97
2017-10-14T10:03:35.761Z,18.23
2017-10-14T10:06:02.464Z,16.40
2017-10-14T10:08:29.703Z,16.87
2017-10-14T10:10:56.349Z,17.13
2017-10-14T10:13:23.196Z,16.53
2017-10-14T10:15:52.373Z,16.17
2017-10-14T10:18:19.154Z,17.27
2017-10-14T10:20:45.832Z,17.37
2017-10-14T10:23:12.845Z,16.53
2017-10-14T10:25:39.540Z,13.00
2017-10-14T10:28:06.426Z,16.30
2017-10-14T10:30:33.440Z,14.53
2017-10-14T10:33:00.482Z,15.40
2017-10-14T10:35:28.243Z,13.97
2017-10-14T10:37:55.047Z,13.60
2017-10-14T10:40:21.848Z,13.73
2017-10-14T10:42:48.607Z,14.43
2017-10-14T10:45:15.696Z,11.13
2017-10-14T10:47:42.671Z,13.40
2017-10-14T10:50:09.689Z,13.83
2017-10-14T10:52:36.376Z,14.07
2017-10-14T10:55:03.207Z,13.90
2017-10-14T10:57:29.938Z,13.50
2017-10-14T10:59:57.069Z,12.97
2017-10-14T11:02:23.826Z,14.53
2017-10-14T11:04:50.728Z,12.53
2017-10-14T11:07:17.653Z,12.93
2017-10-14T11:09:44.312Z,13.67
2017-10-14T11:12:12.090Z,13.03
2017-10-14T11:14:38.990Z,11.20
2017-10-14T11:17:06.029Z,11.17
2017-10-14T11:19:32.842Z,10.93
2017-10-14T11:21:59.812Z,10.43
2017-10-14T11:24:26.448Z,8.47
2017-10-14T11:26:53.108Z,10.27
2017-10-14T11:29:20.341Z,11.17
2017-10-14T11:31:47.237Z,10.90
2017-10-14T11:34:14.255Z,7.43
2017-10-14T11:36:41.155Z,10.53
2017-10-14T11:39:07.982Z,9.30
2017-10-14T11:41:34.732Z,8.20
2017-10-14T11:44:02.152Z,9.70
2017-10-14T11:46:28.878Z,9.00
2017-10-14T11:48:55.548Z,10.10
2017-10-14T11:51:22.409Z,8.87
2017-10-14T11:53:49.070Z,8.50
2017-10-14T11:56:16.223Z,8.60
2017-10-14T11:58:42.938Z,8.73
2017-10-14T12:01:09.857Z,7.20
2017-10-14T12:03:37.111Z,8.50
2017-10-14T12:06:04.661Z,8.50
2017-10-14T12:08:31.667Z,7.43
2017-10-14T12:10:58.337Z,8.70
2017-10-14T12:13:25.178Z,7.47
2017-10-14T12:15:52.048Z,8.80
2017-10-14T12:18:18.963Z,7.73
2017-10-14T12:20:45.702Z,8.20
2017-10-14T12:23:12.511Z,9.53
2017-10-14T12:25:39.216Z,7.90
2017-10-14T12:28:06.571Z,8.83
2017-10-14T12:30:33.316Z,8.57
2017-10-14T12:32:59.992Z,8.53
2017-10-14T12:35:26.829Z,8.50
2017-10-14T12:38:03.391Z,7.83
2017-10-14T12:40:32.293Z,7.60
2017-10-14T12:42:59.206Z,7.67
2017-10-14T12:45:25.964Z,7.77
2017-10-14T12:47:53.031Z,7.00
2017-10-14T12:50:19.832Z,8.23
2017-10-14T12:52:46.472Z,8.00
2017-10-14T12:55:13.225Z,6.50
2017-10-14T12:57:39.819Z,8.77
2017-10-14T13:00:06.720Z,8.90
2017-10-14T13:02:33.947Z,8.13
2017-10-14T13:05:00.690Z,7.60
2017-10-14T13:07:27.347Z,8.50
2017-10-14T13:09:54.111Z,8.70
2017-10-14T13:12:20.671Z,7.50
2017-10-14T13:14:47.337Z,8.07
2017-10-14T13:17:14.142Z,6.70
2017-10-14T13:19:41.025Z,6.60
2017-10-14T13:22:08.721Z,9.37
2017-10-14T13:24:35.351Z,8.93
2017-10-14T13:27:02.387Z,9.50
2017-10-14T13:29:29.847Z,9.10
2017-10-14T13:31:56.776Z,10.30
2017-10-14T13:34:24.511Z,9.60
2017-10-14T13:36:52.101Z,9.77
2017-10-14T13:39:18.954Z,11.57
2017-10-14T13:41:45.989Z,10.10
2017-10-14T13:44:12.648Z,12.77
2017-10-14T13:46:41.235Z,11.77
2017-10-14T13:49:09.182Z,11.80
2017-10-14T13:51:36.921Z,11.53
2017-10-14T13:54:06.751Z,11.20
2017-10-14T13:56:35.031Z,9.80
2017-10-14T13:59:02.087Z,12.27
2017-10-14T14:01:29.358Z,11.57
2017-10-14T14:03:56.212Z,12.00
2017-10-14T14:06:23.018Z,12.17
2017-10-14T14:08:50.323Z,12.63
2017-10-14T14:11:17.243Z,12.03
2017-10-14T14:13:43.940Z,12.47
2017-10-14T14:16:10.803Z,12.30
2017-10-14T14:18:37.888Z,11.20
2017-10-14T14:21:04.861Z,12.90
2017-10-14T14:23:31.722Z,11.60
2017-10-14T14:25:58.371Z,11.67
2017-10-14T14:28:25.116Z,10.50
2017-10-14T14:30:52.240Z,9.97
2017-10-14T14:33:18.973Z,10.33
2017-10-14T14:35:45.853Z,10.03
2017-10-14T14:38:13.340Z,11.50
2017-10-14T14:40:40.142Z,12.70
2017-10-14T14:43:07.193Z,12.70
2017-10-14T14:45:34.564Z,13.30
2017-10-14T14:48:01.395Z,13.50
2017-10-14T14:50:28.339Z,12.60
2017-10-14T14:52:55.557Z,13.53
2017-10-14T14:55:26.077Z,13.97
2017-10-14T14:57:53.887Z,13.20
2017-10-14T15:00:20.783Z,11.47
2017-10-14T15:02:47.436Z,12.50
2017-10-14T15:05:14.340Z,11.30
2017-10-14T15:07:41.229Z,12.30
2017-10-14T15:10:08.578Z,12.97
2017-10-14T15:12:35.438Z,12.13
2017-10-14T15:15:02.575Z,13.93
2017-10-14T15:17:29.888Z,13.20
2017-10-14T15:19:56.756Z,14.50
2017-10-14T15:22:23.623Z,14.63
2017-10-14T15:24:50.285Z,16.43
2017-10-14T15:27:17.006Z,15.70
2017-10-14T15:29:44.054Z,15.80
2017-10-14T15:32:11.119Z,17.40
2017-10-14T15:34:38.264Z,17.20
2017-10-14T15:37:05.122Z,16.40
2017-10-14T15:39:31.865Z,17.37
2017-10-14T15:41:58.605Z,18.40
2017-10-14T15:44:25.605Z,20.10
2017-10-14T15:46:52.547Z,16.53
2017-10-14T15:49:20.100Z,18.30
2017-10-14T15:51:47.212Z,18.80
2017-10-14T15:54:14.739Z,16.20
2017-10-14T15:56:41.653Z,16.90
2017-10-14T15:59:08.465Z,16.97
2017-10-14T16:01:35.128Z,16.80
2017-10-14T16:04:01.868Z,16.67
2017-10-14T16:06:29.163Z,19.00
2017-10-14T16:08:55.916Z,18.37
2017-10-14T16:11:22.970Z,18.10
2017-10-14T16:13:50.108Z,18.13
2017-10-14T16:16:17.038Z,21.83
2017-10-14T16:18:43.731Z,17.47
2017-10-14T16:21:10.569Z,19.00
2017-10-14T16:23:37.415Z,18.90
2017-10-14T16:26:04.065Z,19.23
2017-10-14T16:28:30.975Z,18.57
2017-10-14T16:30:57.733Z,20.43
2017-10-14T16:33:24.369Z,20.70
2017-10-14T16:35:52.075Z,17.83
2017-10-14T16:38:18.684Z,19.30
2017-10-14T16:40:45.468Z,18.10
2017-10-14T16:43:12.334Z,18.27
2017-10-14T16:45:38.970Z,20.87
2017-10-14T16:48:05.732Z,19.37
2017-10-14T16:50:32.545Z,18.97
2017-10-14T16:52:59.922Z,22.20
2017-10-14T16:55:26.741Z,18.63
2017-10-14T16:57:53.409Z,20.00
2017-10-14T17:00:20.253Z,19.40
2017-10-14T17:02:47.110Z,20.00
2017-10-14T17:05:13.887Z,17.80
2017-10-14T17:07:40.836Z,14.43
2017-10-14T17:10:07.516Z,16.20
2017-10-14T17:12:37.426Z,16.43
2017-10-14T17:17:37.265Z,17.23
2017-10-14T17:20:04.855Z,17.53
2017-10-14T17:22:31.692Z,16.20
2017-10-14T17:24:58.439Z,15.37
2017-10-14T17:27:25.231Z,15.83
2017-10-14T17:29:51.980Z,15.47
2017-10-14T17:32:18.685Z,14.70
2017-10-14T17:34:45.595Z,12.90
2017-10-14T17:37:12.381Z,12.97
2017-10-14T17:39:39.181Z,13.23
2017-10-14T17:42:06.793Z,14.70
2017-10-14T17:44:33.653Z,13.60
2017-10-14T17:47:00.607Z,15.23
2017-10-14T17:49:27.439Z,14.37
2017-10-14T17:51:54.354Z,15.30
2017-10-14T17:54:21.133Z,14.50
2017-10-14T17:56:48.096Z,17.30
2017-10-14T17:59:14.805Z,18.80
2017-10-14T18:01:41.856Z,19.03
2017-10-14T18:04:08.689Z,19.17
2017-10-14T18:06:35.467Z,19.37
2017-10-14T18:09:02.584Z,19.97
2017-10-14T18:11:29.223Z,20.90
2017-10-14T18:13:55.956Z,20.70
2017-10-14T18:16:23.394Z,20.63
2017-10-14T18:18:50.233Z,19.37
2017-10-14T18:21:17.763Z,20.63
2017-10-14T18:23:44.493Z,18.83
2017-10-14T18:26:11.200Z,21.07
2017-10-14T18:28:38.048Z,19.80
2017-10-14T18:31:04.774Z,18.93
2017-10-14T18:33:31.932Z,18.63
2017-10-14T18:35:58.691Z,19.20
2017-10-14T18:38:25.636Z,15.30
2017-10-14T18:40:52.426Z,17.47
2017-10-14T18:43:19.356Z,17.53
2017-10-14T18:45:46.253Z,16.10
2017-10-14T18:48:13.200Z,15.53
2017-10-14T18:50:40.310Z,17.27
2017-10-14T18:53:07.185Z,16.47
2017-10-14T18:55:34.265Z,17.80
2017-10-14T18:58:02.117Z,16.40
2017-10-14T19:00:29.129Z,16.10
2017-10-14T19:02:56.451Z,17.30
2017-10-14T19:05:23.399Z,17.33
2017-10-14T19:07:50.407Z,15.17
2017-10-14T19:10:17.623Z,15.83
2017-10-14T19:12:44.225Z,15.17
2017-10-14T19:15:11.007Z,18.17
2017-10-14T19:17:37.738Z,16.70
2017-10-14T19:20:04.536Z,15.97
2017-10-14T19:22:31.777Z,16.80
2017-10-14T19:24:58.554Z,18.40
2017-10-14T19:27:25.187Z,18.97
2017-10-14T19:29:52.572Z,17.83
2017-10-14T19:32:19.517Z,18.40
2017-10-14T19:34:46.268Z,18.77
2017-10-14T19:37:13.407Z,15.90
2017-10-14T19:39:40.993Z,18.10
2017-10-14T19:42:07.903Z,18.67
2017-10-14T19:44:34.648Z,19.67
2017-10-14T19:47:01.438Z,17.80
2017-10-14T19:49:28.991Z,19.10
2017-10-14T19:51:55.957Z,19.47
2017-10-14T19:54:22.610Z,18.50
2017-10-14T19:56:49.675Z,19.03
2017-10-14T19:59:16.742Z,18.90
2017-10-14T20:01:43.623Z,20.10
2017-10-14T20:04:10.382Z,16.53
2017-10-14T20:06:37.261Z,18.43
2017-10-14T20:09:04.056Z,18.07
2017-10-14T20:11:30.873Z,19.60
2017-10-14T20:13:57.699Z,21.00
2017-10-14T20:16:24.597Z,20.20
2017-10-14T20:18:51.877Z,19.40
2017-10-14T20:21:18.745Z,16.20
2017-10-14T20:23:45.792Z,18.77
2017-10-14T20:26:12.875Z,20.80
2017-10-14T20:28:39.910Z,19.70
2017-10-14T20:31:06.654Z,19.00
2017-10-14T20:33:33.610Z,20.03
2017-10-14T20:36:00.864Z,15.57
2017-10-14T20:38:28.631Z,16.00
2017-10-14T20:40:55.597Z,18.13
2017-10-14T20:43:22.316Z,20.30
2017-10-14T20:45:49.100Z,18.60
2017-10-14T20:48:15.999Z,17.30
2017-10-14T20:50:43.349Z,19.37
2017-10-14T20:53:10.158Z,17.10
2017-10-14T20:55:37.093Z,17.07
2017-10-14T20:58:03.690Z,16.77
2017-10-14T21:00:30.560Z,17.20
2017-10-14T21:03:04.286Z,14.27
2017-10-14T21:05:31.252Z,14.97
2017-10-14T21:07:58.128Z,15.50
2017-10-14T21:10:25.558Z,15.20
2017-10-14T21:12:52.760Z,15.20
2017-10-14T21:15:19.481Z,15.40
2017-10-14T21:17:46.318Z,15.53
2017-10-14T21:20:13.152Z,14.90
2017-10-14T21:22:39.914Z,15.87
2017-10-14T21:25:06.780Z,16.70
2017-10-14T21:27:33.561Z,17.23
2017-10-14T21:30:00.345Z,15.90
2017-10-14T21:32:27.633Z,15.83
2017-10-14T21:34:55.480Z,17.53
2017-10-14T21:37:22.247Z,16.77
2017-10-14T21:39:49.004Z,15.03
2017-10-14T21:42:15.745Z,17.57
2017-10-14T21:44:42.707Z,15.63
2017-10-14T21:47:09.941Z,16.53
2017-10-14T21:49:36.627Z,15.60
2017-10-14T21:52:03.746Z,17.43
2017-10-14T21:54:30.671Z,15.70
2017-10-14T21:56:57.499Z,15.33
2017-10-14T21:59:24.220Z,15.13
2017-10-14T22:01:51.232Z,16.20
2017-10-14T22:04:17.875Z,16.57
2017-10-14T22:06:44.639Z,16.00
2017-10-14T22:09:11.394Z,16.73
2017-10-14T22:11:38.302Z,16.83
2017-10-14T22:14:05.187Z,15.97
2017-10-14T22:16:32.176Z,15.60
2017-10-14T22:18:59.272Z,16.30
2017-10-14T22:21:26.084Z,15.87
2017-10-14T22:23:53.416Z,18.00
2017-10-14T22:26:20.217Z,16.70
2017-10-14T22:28:47.025Z,17.23
2017-10-14T22:31:13.877Z,17.37
2017-10-14T22:33:41.461Z,16.80
2017-10-14T22:36:08.772Z,16.13
2017-10-14T22:38:35.486Z,14.50
2017-10-14T22:41:02.291Z,17.10
2017-10-14T22:43:29.004Z,14.53
2017-10-14T22:45:55.846Z,16.30
2017-10-14T22:48:23.284Z,14.90
2017-10-14T22:50:50.866Z,14.90
2017-10-14T22:53:17.628Z,15.03
2017-10-14T22:55:44.504Z,15.20
2017-10-14T22:58:11.169Z,14.43
2017-10-14T23:00:37.966Z,12.43
2017-10-14T23:03:04.806Z,14.03
2017-10-14T23:05:31.632Z,13.00
2017-10-14T23:07:58.326Z,13.97
2017-10-14T23:10:24.877Z,12.03
2017-10-14T23:12:51.543Z,13.50
2017-10-14T23:15:18.313Z,12.73
2017-10-14T23:17:45.070Z,13.87
2017-10-14T23:20:11.926Z,14.53
2017-10-14T23:22:38.753Z,14.43
2017-10-14T23:25:05.625Z,13.90
2017-10-14T23:27:32.253Z,12.43
2017-10-14T23:29:59.148Z,13.57
2017-10-14T23:32:26.052Z,13.97
2017-10-14T23:34:53.563Z,14.00
2017-10-14T23:37:20.485Z,14.17
2017-10-14T23:39:47.391Z,11.97
2017-10-14T23:42:14.097Z,14.43
2017-10-14T23:44:41.587Z,13.57
2017-10-14T23:47:08.366Z,12.80
2017-10-14T23:49:35.372Z,13.50
2017-10-14T23:52:02.358Z,13.00
2017-10-14T23:54:29.148Z,11.60
2017-10-14T23:56:55.933Z,13.60
2017-10-14T23:59:22.868Z,14.70
